モスクワ/シェレメーチエヴォ の空港の天気 - METARとTAF

シェレメーチエヴォ国際空港(モスクワ) ( UUEE / SVO ) - ロシア モスクワ
飛行場実況気象(Metar)
観測時間03/29 00:00 MSK (03/28 21:00 UTC)
風向・風速西南西 3m/s
視程10km以上
天気現象
なし
気温-4℃
湿度86%
気圧1004hPa
METARUUEE 282100Z 25003MPS CAVOK M04/M06 Q1004 R24R/550340 R24L/550340 NOSIG
過去の天気等 Google飛行場航空写真 Wunderground天気予報

過去48時間のMETAR

飛行場予報(TAF)
発表時間: 3/28 23:00 MSK (3/28 20:00 UTC)
予報対象時間: 29日0時 MSK ~ 30日0時 MSK
風向・風速西 5m/s
視程9,000m
全天の8割程度の雲 雲底高度 300m
29日0時 MSK ~ 29日9時 MSK に一時的に
風向・風速北西 10m/s
視程1,000m
天気現象しゅう雪
全天の4割程度の雲 雲底高度 120m
全天の4割程度の積乱雲 雲底高度 370m
TAF UUEE 282000Z 2821/2921 28005MPS 9000 BKN010 TX00/2912Z TNM06/2903Z
TEMPO 2821/2906 31010MPS 1000 SHSN SCT004 SCT012CB